createdAt,value
2018-02-06T00:00:34.074Z,3.61
2018-02-06T00:01:14.660Z,3.69
2018-02-06T00:01:55.197Z,3.7
2018-02-06T00:02:35.749Z,3.7
2018-02-06T00:03:16.280Z,3.66
2018-02-06T00:03:56.794Z,3.72
2018-02-06T00:04:37.314Z,3.73
2018-02-06T00:05:17.886Z,3.75
2018-02-06T00:05:58.407Z,3.72
2018-02-06T00:06:38.997Z,3.75
2018-02-06T00:07:19.499Z,3.72
2018-02-06T00:08:00.067Z,3.8
2018-02-06T00:08:40.559Z,3.72
2018-02-06T00:09:21.128Z,3.79
2018-02-06T00:10:01.720Z,3.83
2018-02-06T00:10:42.290Z,3.94
2018-02-06T00:11:22.802Z,3.7
2018-02-06T00:12:03.369Z,3.66
2018-02-06T00:12:43.854Z,3.84
2018-02-06T00:13:24.408Z,3.76
2018-02-06T00:14:04.896Z,3.68
2018-02-06T00:14:45.406Z,3.78
2018-02-06T00:15:25.934Z,3.78
2018-02-06T00:16:06.469Z,3.94
2018-02-06T00:16:46.997Z,4.02
2018-02-06T00:17:27.497Z,3.8
2018-02-06T00:18:08.186Z,3.78
2018-02-06T00:18:48.739Z,3.94
2018-02-06T00:19:29.208Z,3.8
2018-02-06T00:20:09.775Z,3.8
2018-02-06T00:20:50.297Z,3.97
2018-02-06T00:21:30.885Z,3.76
2018-02-06T00:22:11.394Z,3.73
2018-02-06T00:22:51.889Z,3.68
2018-02-06T00:23:32.442Z,3.76
2018-02-06T00:24:12.981Z,3.73
2018-02-06T00:24:53.552Z,3.84
2018-02-06T00:25:34.032Z,3.91
2018-02-06T00:26:14.569Z,3.84
2018-02-06T00:26:55.149Z,3.78
2018-02-06T00:27:35.705Z,3.96
2018-02-06T00:28:16.239Z,4.06
2018-02-06T00:28:56.802Z,3.9
2018-02-06T00:29:37.341Z,3.86
2018-02-06T00:30:17.872Z,3.75
2018-02-06T00:30:58.376Z,3.76
2018-02-06T00:31:38.942Z,3.7
2018-02-06T00:32:19.451Z,3.78
2018-02-06T00:33:00.018Z,3.78
2018-02-06T00:33:40.558Z,3.7
2018-02-06T00:34:21.051Z,3.58
2018-02-06T00:35:01.606Z,3.61
2018-02-06T00:35:42.153Z,3.62
2018-02-06T00:36:22.685Z,3.62
2018-02-06T00:37:03.180Z,3.62
2018-02-06T00:37:43.755Z,3.6
2018-02-06T00:38:24.320Z,3.58
2018-02-06T00:39:04.824Z,3.55
2018-02-06T00:39:45.361Z,3.68
2018-02-06T00:40:25.929Z,3.79
2018-02-06T00:41:06.472Z,3.86
2018-02-06T00:41:47.026Z,3.8
2018-02-06T00:42:27.578Z,3.79
2018-02-06T00:43:08.057Z,3.69
2018-02-06T00:43:48.661Z,3.61
2018-02-06T00:44:29.160Z,3.65
2018-02-06T00:45:09.732Z,3.58
2018-02-06T00:45:50.280Z,3.58
2018-02-06T00:46:30.769Z,3.52
2018-02-06T00:47:11.277Z,3.47
2018-02-06T00:47:51.813Z,3.54
2018-02-06T00:48:32.365Z,3.4
2018-02-06T00:49:12.900Z,3.42
2018-02-06T00:49:53.453Z,3.43
2018-02-06T00:50:33.992Z,3.51
2018-02-06T00:51:14.559Z,3.54
2018-02-06T00:51:55.215Z,3.4
2018-02-06T00:52:35.648Z,3.55
2018-02-06T00:53:16.187Z,3.45
2018-02-06T00:53:56.711Z,3.55
2018-02-06T00:54:37.271Z,3.57
2018-02-06T00:55:17.791Z,3.7
2018-02-06T00:55:58.322Z,3.83
2018-02-06T00:56:38.889Z,3.78
2018-02-06T00:57:19.483Z,3.88
2018-02-06T00:57:59.987Z,3.94
2018-02-06T00:58:40.530Z,3.96
2018-02-06T00:59:21.035Z,3.93
2018-02-06T01:00:01.576Z,3.96
2018-02-06T01:00:42.097Z,3.94
2018-02-06T01:01:22.691Z,3.94
2018-02-06T01:02:03.218Z,3.84
2018-02-06T01:02:43.714Z,3.62
2018-02-06T01:03:24.246Z,3.75
2018-02-06T01:04:04.788Z,3.78
2018-02-06T01:04:45.305Z,3.78
2018-02-06T01:05:25.834Z,3.62
2018-02-06T01:06:06.362Z,3.58
2018-02-06T01:06:46.922Z,3.54
2018-02-06T01:07:27.467Z,3.6
2018-02-06T01:08:07.975Z,3.66
2018-02-06T01:08:48.466Z,3.65
2018-02-06T01:09:28.995Z,3.6
2018-02-06T01:10:09.572Z,3.6
2018-02-06T01:10:50.077Z,3.57
2018-02-06T01:11:30.617Z,3.76
2018-02-06T01:12:11.158Z,3.83
2018-02-06T01:12:51.702Z,3.66
2018-02-06T01:13:32.253Z,3.52
2018-02-06T01:14:12.766Z,3.43
2018-02-06T01:14:53.293Z,3.45
2018-02-06T01:15:33.867Z,3.45
2018-02-06T01:16:14.372Z,3.57
2018-02-06T01:16:54.922Z,3.43
2018-02-06T01:17:35.453Z,3.57
2018-02-06T01:18:15.990Z,3.6
2018-02-06T01:18:56.541Z,3.52
2018-02-06T01:19:38.861Z,3.54
2018-02-06T01:20:19.408Z,3.52
2018-02-06T01:20:59.932Z,3.6
2018-02-06T01:21:40.485Z,3.48
2018-02-06T01:22:21.034Z,3.5
2018-02-06T01:23:01.530Z,3.36
2018-02-06T01:23:42.029Z,3.33
2018-02-06T01:24:22.653Z,3.45
2018-02-06T01:25:03.202Z,3.4
2018-02-06T01:25:43.728Z,3.48
2018-02-06T01:26:24.251Z,3.5
2018-02-06T01:27:04.755Z,3.51
2018-02-06T01:27:45.296Z,3.55
2018-02-06T01:28:25.838Z,3.75
2018-02-06T01:29:06.453Z,3.66
2018-02-06T01:29:46.934Z,3.42
2018-02-06T01:30:27.481Z,3.47
2018-02-06T01:31:08.023Z,3.54
2018-02-06T01:31:48.560Z,3.36
2018-02-06T01:32:29.103Z,3.26
2018-02-06T01:33:09.630Z,3.23
2018-02-06T01:33:50.187Z,3.26
2018-02-06T01:34:30.754Z,3.18
2018-02-06T01:35:11.258Z,3.23
2018-02-06T01:35:51.796Z,3.21
2018-02-06T01:36:32.367Z,3.28
2018-02-06T01:37:12.907Z,3.47
2018-02-06T01:37:53.439Z,3.42
2018-02-06T01:38:33.932Z,3.31
2018-02-06T01:39:14.483Z,3.31
2018-02-06T01:39:54.987Z,3.39
2018-02-06T01:40:35.513Z,3.33
2018-02-06T01:41:16.080Z,3.48
2018-02-06T01:41:56.617Z,3.55
2018-02-06T01:42:37.137Z,3.4
2018-02-06T01:43:17.663Z,3.33
2018-02-06T01:43:58.248Z,3.35
2018-02-06T01:44:38.771Z,3.39
2018-02-06T01:45:19.306Z,3.54
2018-02-06T01:45:59.823Z,3.57
2018-02-06T01:46:40.355Z,3.52
2018-02-06T01:47:20.898Z,3.52
2018-02-06T01:48:01.400Z,3.58
2018-02-06T01:48:41.949Z,3.57
2018-02-06T01:49:22.488Z,3.58
2018-02-06T01:50:03.012Z,3.6
2018-02-06T01:50:43.574Z,3.66
2018-02-06T01:51:24.117Z,3.61
2018-02-06T01:52:04.675Z,3.52
2018-02-06T01:52:45.145Z,3.58
2018-02-06T01:53:25.673Z,3.61
2018-02-06T01:54:06.190Z,3.65
2018-02-06T01:54:46.764Z,3.61
2018-02-06T01:55:27.268Z,3.55
2018-02-06T01:56:07.758Z,3.62
2018-02-06T01:56:48.321Z,3.6
2018-02-06T01:57:28.845Z,3.57
2018-02-06T01:58:09.388Z,3.6
2018-02-06T01:58:49.900Z,3.58
2018-02-06T01:59:30.440Z,3.5
2018-02-06T02:00:10.968Z,3.54
2018-02-06T02:00:51.504Z,3.62
2018-02-06T02:01:32.007Z,3.68
2018-02-06T02:02:12.559Z,3.66
2018-02-06T02:02:53.181Z,3.51
2018-02-06T02:03:33.716Z,3.54
2018-02-06T02:04:14.204Z,3.68
2018-02-06T02:04:54.777Z,3.72
2018-02-06T02:05:35.301Z,3.54
2018-02-06T02:06:15.844Z,3.72
2018-02-06T02:06:56.309Z,3.76
2018-02-06T02:07:36.932Z,3.72
2018-02-06T02:08:17.448Z,3.69
2018-02-06T02:08:58.041Z,3.79
2018-02-06T02:09:38.547Z,3.83
2018-02-06T02:10:19.098Z,3.86
2018-02-06T02:10:59.645Z,3.6
2018-02-06T02:11:40.230Z,3.48
2018-02-06T02:12:20.743Z,3.51
2018-02-06T02:13:01.278Z,3.57
2018-02-06T02:13:41.773Z,3.6
2018-02-06T02:14:22.328Z,3.69
2018-02-06T02:15:02.925Z,3.7
2018-02-06T02:15:43.413Z,3.66
2018-02-06T02:16:23.989Z,3.6
2018-02-06T02:17:04.522Z,3.62
2018-02-06T02:17:45.047Z,3.68
2018-02-06T02:18:25.628Z,3.75
2018-02-06T02:19:06.168Z,3.58
2018-02-06T02:19:46.673Z,3.43
2018-02-06T02:20:27.231Z,3.52
2018-02-06T02:21:07.803Z,3.61
2018-02-06T02:21:48.358Z,3.57
2018-02-06T02:22:28.883Z,3.65
2018-02-06T02:23:09.437Z,3.5
2018-02-06T02:23:50.018Z,3.54
2018-02-06T02:24:30.556Z,3.39
2018-02-06T02:25:11.108Z,3.52
2018-02-06T02:25:51.601Z,3.52
2018-02-06T02:26:32.142Z,3.61
2018-02-06T02:27:12.694Z,3.52
2018-02-06T02:27:53.218Z,3.58
2018-02-06T02:28:33.778Z,3.5
2018-02-06T02:29:14.350Z,3.52
2018-02-06T02:29:54.892Z,3.6
2018-02-06T02:30:37.252Z,3.58
2018-02-06T02:31:17.778Z,3.55
2018-02-06T02:31:58.312Z,3.57
2018-02-06T02:32:38.827Z,3.51
2018-02-06T02:33:19.419Z,3.45
2018-02-06T02:34:00.001Z,3.45
2018-02-06T02:34:40.540Z,3.61
2018-02-06T02:35:21.092Z,3.48
2018-02-06T02:36:01.599Z,3.39
2018-02-06T02:36:42.149Z,3.39
2018-02-06T02:37:22.708Z,3.5
2018-02-06T02:38:03.221Z,3.45
2018-02-06T02:38:43.745Z,3.24
2018-02-06T02:39:24.277Z,3.39
2018-02-06T02:40:04.816Z,3.23
2018-02-06T02:40:45.346Z,3.28
2018-02-06T02:41:25.834Z,3.32
2018-02-06T04:38:42.275Z,3.48
2018-02-06T04:39:22.814Z,3.52
2018-02-06T04:40:03.304Z,3.47
2018-02-06T04:40:43.853Z,3.47
2018-02-06T04:41:24.403Z,3.5
2018-02-06T04:42:04.997Z,3.51
2018-02-06T04:42:45.579Z,3.6
2018-02-06T04:43:26.008Z,3.6
2018-02-06T04:44:06.571Z,3.69
2018-02-06T04:44:47.108Z,3.73
2018-02-06T04:45:27.658Z,3.79
2018-02-06T04:46:08.208Z,3.87
2018-02-06T04:46:48.722Z,3.86
2018-02-06T04:47:30.754Z,3.88
2018-02-06T04:48:09.798Z,3.88
2018-02-06T04:48:50.412Z,3.87
2018-02-06T04:49:30.895Z,3.8
2018-02-06T04:50:11.402Z,3.75
2018-02-06T04:50:51.928Z,3.8
2018-02-06T04:51:32.482Z,3.62
2018-02-06T04:52:13.001Z,3.6
2018-02-06T04:52:53.543Z,3.57
2018-02-06T04:53:34.132Z,3.62
2018-02-06T04:54:14.632Z,3.66
2018-02-06T04:54:55.169Z,3.54
2018-02-06T04:55:35.714Z,3.35
2018-02-06T04:56:16.267Z,3.33
2018-02-06T04:56:57.567Z,3.36
2018-02-06T04:57:38.107Z,3.26
2018-02-06T04:58:18.616Z,3.23
2018-02-06T04:58:59.147Z,3.33
2018-02-06T04:59:39.709Z,3.35
2018-02-06T05:00:20.240Z,3.29
2018-02-06T05:01:00.808Z,3.35
2018-02-06T05:01:41.314Z,3.32
2018-02-06T05:02:21.855Z,3.4
2018-02-06T05:03:02.397Z,3.26
2018-02-06T05:03:42.906Z,3.52
2018-02-06T05:04:23.496Z,3.52
2018-02-06T05:05:03.967Z,3.62
2018-02-06T05:05:44.487Z,3.65
2018-02-06T05:06:25.039Z,3.69
2018-02-06T05:07:05.594Z,3.72
2018-02-06T05:07:46.148Z,3.72
2018-02-06T05:08:26.665Z,3.75
2018-02-06T05:09:07.137Z,3.78
2018-02-06T05:09:47.656Z,3.94
2018-02-06T05:10:28.217Z,3.86
2018-02-06T05:11:08.703Z,3.78
2018-02-06T05:11:49.229Z,3.76
2018-02-06T05:12:29.753Z,3.79
2018-02-06T05:13:10.265Z,3.87
2018-02-06T05:13:50.825Z,3.91
2018-02-06T05:14:31.394Z,3.72
2018-02-06T05:15:11.894Z,3.65
2018-02-06T05:15:52.420Z,3.62
2018-02-06T05:16:32.911Z,3.62
2018-02-06T05:17:13.476Z,3.58
2018-02-06T05:17:53.982Z,3.61
2018-02-06T05:18:34.499Z,3.66
2018-02-06T05:19:15.031Z,3.52
2018-02-06T05:19:55.562Z,3.62
2018-02-06T05:20:36.083Z,3.5
2018-02-06T05:21:16.639Z,3.45
2018-02-06T05:21:57.157Z,3.58
2018-02-06T05:22:38.264Z,3.62
2018-02-06T05:23:18.211Z,3.55
2018-02-06T05:23:58.864Z,3.43
2018-02-06T05:24:39.420Z,3.61
2018-02-06T05:25:19.976Z,3.58
2018-02-06T05:26:00.489Z,3.62
2018-02-06T05:26:41.074Z,3.75
2018-02-06T05:27:21.573Z,3.57
2018-02-06T05:28:02.153Z,3.54
2018-02-06T05:28:42.700Z,3.51
2018-02-06T05:29:23.201Z,3.42
2018-02-06T05:30:03.730Z,3.43
2018-02-06T05:30:44.233Z,3.31
2018-02-06T05:31:24.753Z,3.42
2018-02-06T05:32:05.259Z,3.29
2018-02-06T05:32:45.812Z,3.2
2018-02-06T05:33:26.361Z,3.21
2018-02-06T05:34:06.913Z,3.26
2018-02-06T05:34:47.468Z,3.29
2018-02-06T05:35:27.987Z,3.35
2018-02-06T05:36:08.504Z,3.39
2018-02-06T05:36:49.061Z,3.28
2018-02-06T05:37:29.578Z,3.33
2018-02-06T05:38:10.110Z,3.39
2018-02-06T05:38:50.670Z,3.42
2018-02-06T05:39:31.195Z,3.54
2018-02-06T05:40:11.756Z,3.51
2018-02-06T05:40:52.267Z,3.5
2018-02-06T05:41:32.861Z,3.5
2018-02-06T05:42:13.353Z,3.42
2018-02-06T05:42:53.895Z,3.33
2018-02-06T05:43:34.442Z,3.36
2018-02-06T05:44:14.974Z,3.24
2018-02-06T05:44:55.539Z,3.32
2018-02-06T05:45:36.073Z,3.26
2018-02-06T05:46:16.603Z,3.28
2018-02-06T05:46:57.165Z,3.39
2018-02-06T05:47:37.840Z,3.5
2018-02-06T05:48:18.399Z,3.6
2018-02-06T05:48:58.922Z,3.57
2018-02-06T05:49:39.464Z,3.58
2018-02-06T05:50:19.942Z,3.62
2018-02-06T05:51:00.506Z,3.58
2018-02-06T05:51:41.072Z,3.62
2018-02-06T05:52:21.590Z,3.55
2018-02-06T05:53:02.114Z,3.54
2018-02-06T05:53:42.652Z,3.57
2018-02-06T05:54:23.155Z,3.62
2018-02-06T05:55:03.718Z,3.62
2018-02-06T05:55:44.244Z,3.5
2018-02-06T05:56:24.764Z,3.52
2018-02-06T05:57:05.351Z,3.58
2018-02-06T05:57:45.830Z,3.58
2018-02-06T05:58:26.363Z,3.6
2018-02-06T05:59:06.889Z,3.58
2018-02-06T05:59:47.494Z,3.57
2018-02-06T06:00:28.016Z,3.6
2018-02-06T06:01:08.560Z,3.61
2018-02-06T06:01:49.126Z,3.62
2018-02-06T06:02:29.733Z,3.61
2018-02-06T06:03:10.260Z,3.6
2018-02-06T06:03:50.855Z,3.52
2018-02-06T06:04:31.354Z,3.57
2018-02-06T06:05:11.959Z,3.29
2018-02-06T06:05:52.509Z,3.21
2018-02-06T06:06:33.100Z,3.36
2018-02-06T06:07:13.676Z,3.42
2018-02-06T06:07:54.185Z,3.52
2018-02-06T06:08:34.755Z,3.47
2018-02-06T06:09:15.360Z,3.6
2018-02-06T06:09:55.909Z,3.62
2018-02-06T06:10:36.441Z,3.61
2018-02-06T06:11:16.974Z,3.66
2018-02-06T06:11:57.504Z,3.75
2018-02-06T06:12:37.976Z,3.69
2018-02-06T06:13:18.577Z,3.72
2018-02-06T06:13:59.181Z,3.73
2018-02-06T06:14:39.827Z,3.78
2018-02-06T06:15:20.435Z,3.72
2018-02-06T06:16:01.020Z,3.61
2018-02-06T06:16:41.616Z,3.51
2018-02-06T06:17:22.153Z,3.5
2018-02-06T06:18:02.697Z,3.58
2018-02-06T06:18:43.265Z,3.62
2018-02-06T06:19:23.862Z,3.52
2018-02-06T06:20:04.454Z,3.48
2018-02-06T06:20:44.981Z,3.6
2018-02-06T06:21:25.554Z,3.66
2018-02-06T06:22:06.154Z,3.6
2018-02-06T06:22:46.712Z,3.47
2018-02-06T06:23:27.262Z,3.51
2018-02-06T06:24:07.907Z,3.57
2018-02-06T06:24:48.467Z,3.55
2018-02-06T06:25:29.081Z,3.55
2018-02-06T06:26:16.730Z,3.43
2018-02-06T06:26:57.289Z,3.52
2018-02-06T06:27:37.800Z,3.61
2018-02-06T06:28:18.327Z,3.66
2018-02-06T06:28:58.935Z,3.65
2018-02-06T06:29:39.455Z,3.75
2018-02-06T06:30:20.070Z,3.78
2018-02-06T06:31:00.689Z,3.78
2018-02-06T06:31:41.253Z,3.76
2018-02-06T06:32:21.868Z,3.68
2018-02-06T06:33:03.005Z,3.84
2018-02-06T06:33:43.548Z,3.87
2018-02-06T06:34:24.170Z,3.84
2018-02-06T06:35:04.675Z,3.8
2018-02-06T06:35:45.313Z,3.93
2018-02-06T06:36:25.944Z,3.79
2018-02-06T06:37:06.521Z,3.75
2018-02-06T06:37:47.094Z,3.75
2018-02-06T06:38:27.595Z,3.69
2018-02-06T06:39:08.128Z,3.66
2018-02-06T06:39:48.654Z,3.76
2018-02-06T06:40:29.189Z,3.84
2018-02-06T06:41:09.812Z,3.79
2018-02-06T06:41:50.353Z,3.93
2018-02-06T06:42:30.890Z,3.86
2018-02-06T06:43:11.417Z,3.75
2018-02-06T06:43:52.052Z,3.84
2018-02-06T06:44:32.581Z,4
2018-02-06T06:45:13.112Z,3.97
2018-02-06T06:45:53.616Z,4.02
2018-02-06T06:46:34.169Z,4.15
2018-02-06T06:47:14.709Z,4.09
2018-02-06T06:47:55.318Z,4.23
2018-02-06T06:48:35.962Z,4.24
2018-02-06T06:49:16.530Z,4.22
2018-02-06T06:49:57.047Z,4.11
2018-02-06T06:50:37.547Z,4.23
2018-02-06T06:51:18.056Z,4.22
2018-02-06T06:51:59.385Z,4.22
2018-02-06T06:52:39.884Z,4.2
2018-02-06T06:53:20.439Z,4.26
2018-02-06T06:54:01.006Z,4.27
2018-02-06T06:54:41.501Z,4.32
2018-02-06T06:55:22.110Z,4.2
2018-02-06T06:56:02.685Z,4.16
2018-02-06T06:56:43.143Z,4.23
2018-02-06T06:57:23.884Z,4.34
2018-02-06T06:58:04.384Z,4.32
2018-02-06T06:58:44.950Z,4.18
2018-02-06T06:59:25.469Z,4.16
2018-02-06T07:00:06.060Z,4.27
2018-02-06T07:00:46.574Z,4.34
2018-02-06T07:01:27.109Z,4.3
2018-02-06T07:02:07.643Z,4.23
2018-02-06T07:02:48.201Z,4.12
2018-02-06T07:03:28.811Z,4.05
2018-02-06T07:04:09.277Z,4.02
2018-02-06T07:04:49.845Z,4
2018-02-06T07:05:30.317Z,4.23
2018-02-06T07:06:10.876Z,4.23
2018-02-06T07:06:51.433Z,4.29
2018-02-06T07:07:31.975Z,4.29
2018-02-06T07:08:12.442Z,4.3
2018-02-06T07:08:52.993Z,4.34
2018-02-06T07:09:33.489Z,4.34
2018-02-06T07:10:14.091Z,4.23
2018-02-06T07:10:54.662Z,4.22
2018-02-06T07:11:35.163Z,4.33
2018-02-06T07:12:15.716Z,4.37
2018-02-06T07:12:56.261Z,4.34
2018-02-06T07:13:36.838Z,4.44
2018-02-06T07:14:17.327Z,4.45
2018-02-06T07:14:57.891Z,4.55
2018-02-06T07:15:38.466Z,4.48
2018-02-06T07:16:18.983Z,4.5
2018-02-06T07:16:59.549Z,4.51
2018-02-06T07:17:40.072Z,4.54
2018-02-06T07:18:20.610Z,4.37
2018-02-06T07:19:01.161Z,4.22
2018-02-06T07:19:41.768Z,4.29
2018-02-06T07:20:22.273Z,5.09
2018-02-06T07:21:02.834Z,5.04
2018-02-06T07:21:43.361Z,4.97
2018-02-06T07:22:23.878Z,4.8
2018-02-06T07:23:04.420Z,4.72
2018-02-06T07:23:44.991Z,5.3
2018-02-06T07:24:25.489Z,5.97
2018-02-06T07:25:05.996Z,6.14
2018-02-06T07:25:46.577Z,5.97
2018-02-06T07:26:27.143Z,5.9
2018-02-06T07:27:07.689Z,5.35
2018-02-06T07:27:48.228Z,5.22
2018-02-06T07:28:28.779Z,4.72
2018-02-06T07:29:09.357Z,4.59
2018-02-06T07:29:49.899Z,4.58
2018-02-06T07:30:30.481Z,4.67
2018-02-06T07:31:11.015Z,4.65
2018-02-06T07:31:51.594Z,4.77
2018-02-06T07:32:32.170Z,4.86
2018-02-06T07:33:12.667Z,4.91
2018-02-06T07:33:53.211Z,5.02
2018-02-06T07:34:33.779Z,5.12
2018-02-06T07:35:14.256Z,5.78
2018-02-06T07:35:54.890Z,6.33
2018-02-06T07:36:35.376Z,6.04
2018-02-06T07:37:15.978Z,5.83
2018-02-06T07:37:56.486Z,5.76
2018-02-06T07:38:37.034Z,6.11
2018-02-06T07:39:17.543Z,5.9
2018-02-06T07:39:58.264Z,5.74
2018-02-06T07:40:38.803Z,5.24
2018-02-06T07:41:19.341Z,5.24
2018-02-06T07:41:59.836Z,5.1
2018-02-06T07:42:40.370Z,5.02
2018-02-06T07:43:21.009Z,5.03
2018-02-06T07:44:01.676Z,5.09
2018-02-06T07:44:42.177Z,4.97
2018-02-06T07:45:22.780Z,5.12
2018-02-06T07:46:03.325Z,5.17
2018-02-06T07:46:43.873Z,5.02
2018-02-06T07:47:24.345Z,5.15
2018-02-06T07:48:04.911Z,5.22
2018-02-06T07:48:45.452Z,5.1
2018-02-06T07:49:25.979Z,4.99
2018-02-06T07:50:06.518Z,4.97
2018-02-06T07:50:47.088Z,5.09
2018-02-06T07:51:27.591Z,5.15
2018-02-06T07:52:08.184Z,5.12
2018-02-06T07:52:48.735Z,5
2018-02-06T07:53:29.244Z,5.02
2018-02-06T07:54:09.733Z,5.03
2018-02-06T07:54:50.285Z,5.09
2018-02-06T07:55:30.930Z,4.92
2018-02-06T07:56:11.439Z,4.99
2018-02-06T07:56:51.929Z,4.89
2018-02-06T07:57:32.533Z,4.96
2018-02-06T07:58:13.023Z,4.99
2018-02-06T07:58:53.571Z,5.17
2018-02-06T07:59:34.057Z,5.42
2018-02-06T08:00:14.624Z,5.74
2018-02-06T08:00:55.243Z,5.49
2018-02-06T08:01:35.810Z,5.43
2018-02-06T08:02:16.371Z,5.67
2018-02-06T08:02:56.891Z,6.18
2018-02-06T08:03:37.372Z,6.31
2018-02-06T08:04:18.009Z,6.03
2018-02-06T08:04:58.599Z,5.94
2018-02-06T08:05:39.158Z,5.75
2018-02-06T08:06:19.685Z,5.63
2018-02-06T08:07:00.205Z,5.57
2018-02-06T08:07:40.790Z,5.56
2018-02-06T08:08:21.323Z,5.56
2018-02-06T08:09:01.899Z,5.6
2018-02-06T08:09:42.417Z,5.58
2018-02-06T08:10:22.958Z,5.49
2018-02-06T08:11:03.474Z,5.51
2018-02-06T08:11:44.143Z,5.65
2018-02-06T08:12:24.668Z,5.99
2018-02-06T08:13:05.197Z,5.93
2018-02-06T08:13:45.720Z,5.86
2018-02-06T08:14:26.264Z,5.89
2018-02-06T08:15:06.802Z,5.82
2018-02-06T08:15:47.334Z,6.12
2018-02-06T08:16:27.947Z,6.3
2018-02-06T08:17:08.507Z,6.38
2018-02-06T08:17:49.078Z,6.25
2018-02-06T08:18:29.693Z,6.12
2018-02-06T08:19:10.264Z,6.06
2018-02-06T08:19:50.828Z,6.04
2018-02-06T08:20:31.345Z,6.06
2018-02-06T08:21:11.859Z,5.97
2018-02-06T08:21:52.373Z,5.93
2018-02-06T08:22:32.939Z,5.79
2018-02-06T08:23:13.481Z,5.64
2018-02-06T08:23:54.046Z,5.72
2018-02-06T08:24:34.649Z,5.76
2018-02-06T08:25:15.135Z,5.78
2018-02-06T08:25:55.696Z,5.83
2018-02-06T08:26:36.264Z,6.04
2018-02-06T08:27:16.916Z,6.34
2018-02-06T08:27:57.364Z,6.56
2018-02-06T08:28:37.885Z,6.52
2018-02-06T08:29:18.470Z,6.27
2018-02-06T08:29:58.981Z,6.03
2018-02-06T08:30:39.546Z,6.08
2018-02-06T08:31:20.177Z,6.04
2018-02-06T08:32:00.684Z,6.06
2018-02-06T08:32:41.205Z,6.04
2018-02-06T08:33:21.790Z,6.08
2018-02-06T08:34:02.305Z,6.11
2018-02-06T08:34:42.912Z,6.09
2018-02-06T08:35:23.502Z,6.14
2018-02-06T08:36:04.043Z,6.19
2018-02-06T08:36:44.562Z,6.18
2018-02-06T08:37:25.107Z,6.12
2018-02-06T08:38:05.683Z,5.96
2018-02-06T08:38:46.217Z,6.03
2018-02-06T08:39:26.723Z,6
2018-02-06T08:40:07.245Z,6.12
2018-02-06T08:40:47.751Z,6.06
2018-02-06T08:41:28.254Z,6.19
2018-02-06T08:42:08.940Z,6.38
2018-02-06T08:42:49.339Z,6.76
2018-02-06T08:43:29.905Z,7.1
2018-02-06T08:44:10.478Z,7.4
2018-02-06T08:44:51.125Z,7.37
2018-02-06T08:45:31.629Z,7.21
2018-02-06T08:46:12.117Z,6.67
2018-02-06T08:46:52.649Z,6.81
2018-02-06T08:47:33.191Z,6.67
2018-02-06T08:48:13.723Z,6.61
2018-02-06T08:48:54.261Z,6.44
2018-02-06T08:49:34.816Z,6.3
2018-02-06T08:50:15.412Z,6.37
2018-02-06T08:50:55.929Z,6.43
2018-02-06T08:51:36.432Z,6.36
2018-02-06T08:52:18.972Z,6.4
2018-02-06T08:53:00.702Z,6.22
2018-02-06T08:53:41.335Z,6.22
2018-02-06T08:54:22.549Z,6.34
2018-02-06T08:55:03.097Z,6.25
2018-02-06T08:55:43.658Z,6.61
2018-02-06T08:56:24.226Z,7.4
2018-02-06T08:57:04.763Z,7.82
2018-02-06T08:57:45.293Z,7.9
2018-02-06T08:58:25.786Z,7.74
2018-02-06T08:59:06.477Z,7.75
2018-02-06T08:59:46.914Z,7.79
2018-02-06T09:00:27.517Z,7.24
2018-02-06T09:01:08.121Z,6.84
2018-02-06T09:01:48.595Z,6.52
2018-02-06T09:02:29.116Z,6.41
2018-02-06T09:03:09.679Z,6.43
2018-02-06T09:03:50.206Z,6.38
2018-02-06T09:04:30.796Z,6.41
2018-02-06T09:05:11.287Z,6.43
2018-02-06T09:05:51.898Z,6.4
2018-02-06T09:06:32.401Z,6.46
2018-02-06T09:07:12.908Z,6.43
2018-02-06T09:07:53.436Z,6.41
2018-02-06T09:08:33.949Z,6.4
2018-02-06T09:09:14.475Z,6.12
2018-02-06T09:09:55.020Z,6.64
2018-02-06T09:10:35.548Z,6.89
2018-02-06T09:11:16.120Z,7.02
2018-02-06T09:11:56.779Z,7.05
2018-02-06T09:12:37.305Z,7.23
2018-02-06T09:13:17.833Z,7.31
2018-02-06T09:13:58.363Z,7.37
2018-02-06T09:14:38.949Z,7.05
2018-02-06T09:15:19.444Z,6.76
2018-02-06T09:16:00.070Z,6.73
2018-02-06T09:16:40.549Z,6.76
2018-02-06T09:17:21.109Z,6.84
2018-02-06T09:18:01.644Z,6.84
2018-02-06T09:18:42.195Z,6.74
2018-02-06T09:19:22.689Z,6.79
2018-02-06T09:20:03.250Z,6.74
2018-02-06T09:20:43.799Z,6.8
2018-02-06T09:21:24.373Z,6.87
2018-02-06T09:22:04.850Z,6.87
2018-02-06T09:22:45.372Z,6.84
2018-02-06T09:23:25.944Z,6.84
2018-02-06T09:24:06.434Z,6.89
2018-02-06T09:24:47.035Z,6.97
2018-02-06T09:25:27.582Z,6.88
2018-02-06T09:26:08.133Z,6.95
2018-02-06T09:26:48.707Z,7.03
2018-02-06T09:27:29.248Z,7.12
2018-02-06T09:28:09.804Z,7.13
2018-02-06T09:28:50.288Z,7.07
2018-02-06T09:29:30.802Z,7.13
2018-02-06T09:30:11.355Z,7.2
2018-02-06T09:30:51.886Z,7.55
2018-02-06T09:31:32.407Z,7.64
2018-02-06T09:32:12.993Z,7.4
2018-02-06T09:32:53.510Z,7.25
2018-02-06T09:33:34.054Z,7.17
2018-02-06T09:34:14.587Z,6.91
2018-02-06T09:34:55.116Z,6.92
2018-02-06T09:35:35.671Z,7.02
2018-02-06T09:36:16.186Z,7.09
2018-02-06T09:36:56.726Z,7.12
2018-02-06T09:37:37.256Z,7.21
2018-02-06T09:38:17.786Z,7.3
2018-02-06T09:38:58.358Z,7.15
2018-02-06T09:39:38.927Z,7.24
2018-02-06T09:40:19.443Z,7.31
2018-02-06T09:40:59.971Z,7.25
2018-02-06T09:41:40.516Z,7.15
2018-02-06T09:42:21.024Z,7.02
2018-02-06T09:43:01.721Z,7.09
2018-02-06T09:43:42.261Z,7.02
2018-02-06T09:44:22.846Z,7.1
2018-02-06T09:45:03.497Z,7.02
2018-02-06T09:45:43.959Z,7.06
2018-02-06T09:46:24.599Z,7.16
2018-02-06T09:47:05.102Z,7.12
2018-02-06T09:47:45.688Z,7.1
2018-02-06T09:48:26.215Z,7.2
2018-02-06T09:49:06.774Z,7.17
2018-02-06T09:49:47.317Z,7.15
2018-02-06T09:50:27.884Z,7.21
2018-02-06T09:51:08.394Z,7.24
2018-02-06T09:51:48.913Z,7.1
2018-02-06T09:52:29.425Z,7.15
2018-02-06T09:53:10.014Z,7.17
2018-02-06T09:53:50.576Z,7.45
2018-02-06T09:54:31.063Z,7.68
2018-02-06T09:55:11.620Z,7.82
2018-02-06T09:55:52.182Z,7.53
2018-02-06T09:56:32.721Z,7.52
2018-02-06T09:57:13.319Z,7.64
2018-02-06T09:57:53.820Z,8.01
2018-02-06T09:58:34.387Z,7.87
2018-02-06T09:59:14.901Z,7.69
2018-02-06T09:59:55.478Z,7.61
2018-02-06T10:00:35.990Z,7.2
2018-02-06T10:01:16.549Z,7.02
2018-02-06T10:01:57.105Z,7.07
2018-02-06T10:02:37.637Z,7.1
2018-02-06T10:03:18.108Z,7.24
2018-02-06T10:03:58.680Z,7.23
2018-02-06T10:04:39.298Z,7.23
2018-02-06T10:05:19.900Z,7.25
2018-02-06T10:06:00.430Z,7.23
2018-02-06T10:06:40.976Z,7.27
2018-02-06T10:07:21.508Z,7.3
2018-02-06T10:08:02.059Z,7.34
2018-02-06T10:08:42.736Z,7.43
2018-02-06T10:09:23.470Z,7.48
2018-02-06T10:10:04.036Z,7.79
2018-02-06T10:10:44.604Z,7.55
2018-02-06T10:11:25.125Z,7.34
2018-02-06T10:12:05.696Z,7.72
2018-02-06T10:12:46.231Z,7.34
2018-02-06T10:13:26.754Z,7.37
2018-02-06T10:14:07.268Z,7.42
2018-02-06T10:14:47.829Z,7.43
2018-02-06T10:15:28.347Z,7.45
2018-02-06T10:16:08.864Z,7.45
2018-02-06T10:16:49.766Z,7.48
2018-02-06T10:17:30.291Z,7.39
2018-02-06T10:18:10.817Z,7.3
2018-02-06T10:18:51.376Z,7.2
2018-02-06T10:19:31.969Z,7.24
2018-02-06T10:20:12.497Z,6.98
2018-02-06T10:20:53.054Z,6.98
2018-02-06T10:21:33.567Z,6.88
2018-02-06T10:22:14.107Z,6.99
2018-02-06T10:22:54.656Z,6.91
2018-02-06T10:23:35.244Z,6.84
2018-02-06T10:24:15.783Z,6.76
2018-02-06T10:24:56.364Z,6.85
2018-02-06T10:25:36.997Z,6.88
2018-02-06T10:26:17.526Z,7.06
2018-02-06T10:26:58.064Z,7.12
2018-02-06T10:27:38.597Z,7.09
2018-02-06T10:28:19.165Z,6.89
2018-02-06T10:28:59.727Z,7.02
2018-02-06T10:29:40.355Z,7.13
2018-02-06T10:30:20.917Z,7.39
2018-02-06T10:31:01.557Z,7.34
2018-02-06T10:31:42.084Z,7.46
2018-02-06T10:32:22.788Z,7.92
2018-02-06T10:33:03.209Z,8.12
2018-02-06T10:33:43.760Z,7.72
2018-02-06T10:34:24.335Z,7.8
2018-02-06T10:35:04.897Z,7.31
2018-02-06T10:35:45.419Z,6.99
2018-02-06T10:36:26.012Z,6.92
2018-02-06T10:37:06.555Z,6.99
2018-02-06T10:37:47.150Z,6.87
2018-02-06T10:38:27.698Z,6.58
2018-02-06T10:39:08.270Z,6.48
2018-02-06T10:39:48.860Z,6.54
2018-02-06T10:40:29.368Z,6.71
2018-02-06T10:41:10.028Z,6.77
2018-02-06T10:41:50.582Z,6.71
2018-02-06T10:42:31.145Z,6.85
2018-02-06T10:43:11.641Z,7.02
2018-02-06T10:43:52.235Z,6.97
2018-02-06T10:44:32.827Z,7.03
2018-02-06T10:45:13.430Z,7.07
2018-02-06T10:45:53.858Z,7.12
2018-02-06T10:46:34.397Z,7.28
2018-02-06T10:47:15.020Z,7.31
2018-02-06T10:47:55.547Z,7.42
2018-02-06T10:48:36.090Z,7.28
2018-02-06T10:49:16.605Z,7.27
2018-02-06T10:49:57.115Z,7.27
2018-02-06T10:50:37.681Z,7.31
2018-02-06T10:51:18.250Z,7.52
2018-02-06T10:51:58.903Z,7.57
2018-02-06T10:52:39.424Z,7.92
2018-02-06T10:53:19.991Z,8
2018-02-06T10:54:00.544Z,8.19
2018-02-06T10:54:41.161Z,8.01
2018-02-06T10:55:21.676Z,8
2018-02-06T10:56:02.170Z,7.58
2018-02-06T10:56:43.765Z,7.61
2018-02-06T10:57:24.298Z,7.58
2018-02-06T10:58:04.851Z,7.53
2018-02-06T10:58:45.382Z,7.64
2018-02-06T10:59:25.893Z,7.71